Details for Air Canada at CYYZ




Go Back


Latest METAR
Local Time

CYYZ 220900Z 33010G17KT 15SM BKN031 12/07 A3017 RMK SC6 SLP218
22/09/2018, 05:15:38

Description
Results
Air Canada Logo
Number of Pilots based at CYYZ
0 Pilots Based here
Number of Air Canada Flights Departed from CYYZ
5 Flights Departed
Number of Air Canada Flights Arrived at CYYZ
5 Flights Arrived
Number of Air Canada Schedules Departing from CYYZ
237 Schedules
Number of Air Canada Schedules Arriving at CYYZ
257 Schedules
Number of Air Canada Schedules Departing from CYYZ availible today
161 Schedules Today
Number of Air Canada Schedules Arriving at CYYZ availible today
165 Schedules Today
Average Landing Rate at CYYZ
-259 fpm
Air Canada Average Landing Rate at CYYZ
-306 fpm
Total Fuel Purchased at CYYZ by Air Canada
25,954.56 kgs / 57,219.42 lbs

Pilots Based at CYYZ


Pilot ID
Pilot Name
Pilot Rank
No. of Flights
No. of Flying Hours
There are no pilots assigned to this hub!   Will you be the first?
Content